Latest Weather Observations for Creal Reef

IDQ60801

Issued at 3:05 pm EST Friday 25 April 2014 (issued every 30 minutes, with the page automatically refreshed every 10 minutes)

About weather observations | Map of weather stations | Latest weather observations for QLD | Other Formats
Station Details ID: 200736 Name: CREAL REEF Lat: -20.53 Lon: 150.38 Height: 1.7 m
Data from the previous 72 hours. | See also: Recent months for locations in Queensland
Date/Time
EST
Temp
°C
App
Temp
°C
Dew
Point
Rel
Hum
%
Delta-T
°C
Wind Press
QNH
hPa
Press
MSL
hPa
Rain
since 9 am
mm
Dir
 
Spd
km/h
Gust
km/h
Spd
kts
Gust
kts
25/03:00pm 25.9 - - - - SE 28 30 15 16 1012.0 - -
25/02:30pm 25.9 - - - - SE 26 32 14 17 1011.9 - -
25/02:20pm 25.9 - - - - SE 28 - 15 - - 1011.8 -
25/02:00pm 25.9 - - - - SE 28 32 15 17 1012.0 - -
25/01:30pm 25.9 - - - - SE 26 32 14 17 1012.4 - -
25/01:20pm 26.0 - - - - SE 26 - 14 - - 1012.4 -
25/01:00pm 26.1 - - - - SE 26 28 14 15 1012.7 - -
25/12:30pm 26.0 - - - - SE 24 28 13 15 1013.1 - -
25/12:20pm 26.0 - - - - SSE 22 - 12 - - 1013.1 -
25/12:00pm 25.9 - - - - SSE 22 28 12 15 1013.5 - -
25/11:30am 25.9 - - - - SSE 22 28 12 15 1013.9 - -
25/11:20am 25.9 - - - - SSE 22 - 12 - - 1013.9 -
25/11:00am 25.9 - - - - SSE 24 28 13 15 1014.2 - -
25/10:30am 26.0 - - - - SSE 22 30 12 16 1014.6 - -
25/10:20am 26.2 - - - - SSE 24 - 13 - - 1014.6 -
25/10:00am 26.1 - - - - SSE 20 24 11 13 1014.9 - -
25/09:30am 25.9 - - - - SSE 24 30 13 16 1014.9 - -
25/09:20am 25.9 - - - - SE 26 - 14 - - 1014.7 -
25/09:00am 25.9 - - - - SE 24 26 13 14 1014.8 - -
25/08:30am 25.9 - - - - SE 24 28 13 15 1014.7 - -
25/08:20am 25.9 - - - - SE 24 - 13 - - 1014.6 -
25/08:00am 25.8 - - - - SE 26 30 14 16 1014.5 - -
25/07:30am 25.8 - - - - SE 26 30 14 16 1014.2 - -
25/07:20am 25.7 - - - - SE 28 - 15 - - 1014.0 -
25/07:00am 25.6 - - - - SE 28 32 15 17 1013.7 - -
25/06:30am 25.6 - - - - ESE 26 32 14 17 1013.4 - -
25/06:20am 25.5 - - - - SE 28 - 15 - - 1013.2 -
25/06:00am 25.5 - - - - ESE 28 30 15 16 1013.0 - -
25/05:30am 25.5 - - - - SE 30 32 16 17 1012.6 - -
25/05:20am 25.4 - - - - ESE 28 - 15 - - 1012.4 -
25/05:00am 25.5 - - - - ESE 30 33 16 18 1012.3 - -
25/04:30am 25.4 - - - - SE 26 30 14 16 1012.3 - -
25/04:20am 25.4 - - - - SE 26 - 14 - - 1012.1 -
25/04:00am 25.5 - - - - SE 26 30 14 16 1012.4 - -
25/03:30am 25.4 - - - - SE 28 32 15 17 1012.2 - -
25/03:20am 25.3 - - - - SE 26 - 14 - - 1012.0 -
25/03:00am 25.4 - - - - SE 26 30 14 16 1012.3 - -
25/02:30am 25.3 - - - - SE 26 32 14 17 1012.3 - -
25/02:20am 25.2 - - - - ESE 26 - 14 - - 1012.3 -
25/02:00am 25.3 - - - - ESE 26 28 14 15 1012.6 - -
25/01:30am 25.3 - - - - ESE 26 30 14 16 1012.9 - -
25/01:20am 25.3 - - - - ESE 26 - 14 - - 1012.9 -
25/01:00am 25.5 - - - - ESE 24 28 13 15 1013.1 - -
25/12:30am 25.5 - - - - SE 26 30 14 16 1013.6 - -
25/12:20am 25.3 - - - - SE 28 - 15 - - 1013.5 -
25/12:00am 25.3 - - - - SE 26 28 14 15 1013.7 - -
 
Date/Time
EST
Temp
°C
App
Temp
°C
Dew
Point
Rel
Hum
%
Delta-T
°C
Wind Press
QNH
hPa
Press
MSL
hPa
Rain
since 9 am
mm
Dir
 
Spd
km/h
Gust
km/h
Spd
kts
Gust
kts
24/11:30pm 25.4 - - - - SE 26 30 14 16 1013.9 - -
24/11:20pm 25.3 - - - - SSE 28 - 15 - - 1013.8 -
24/11:00pm 25.5 - - - - SSE 26 32 14 17 1014.0 - -
24/10:30pm 25.6 - - - - SSE 26 32 14 17 1014.2 - -
24/10:20pm 25.6 - - - - SSE 26 - 14 - - 1014.0 -
24/10:00pm 25.6 - - - - SSE 28 35 15 19 1014.0 - -
24/09:30pm 25.6 - - - - SSE 26 33 14 18 1014.3 - -
24/09:20pm 25.6 - - - - SSE 28 - 15 - - 1014.4 -
24/09:00pm 25.6 - - - - SSE 32 35 17 19 1014.4 - -
24/08:30pm 25.6 - - - - SSE 28 35 15 19 1014.2 - -
24/08:20pm 25.5 - - - - SSE 28 - 15 - - 1014.0 -
24/08:00pm 25.5 - - - - SSE 28 33 15 18 1013.9 - -
24/07:30pm 25.8 - - - - SE 30 33 16 18 1013.4 - -
24/07:20pm 25.7 - - - - SSE 26 - 14 - - 1013.2 -
24/07:00pm 25.7 - - - - SE 26 30 14 16 1013.0 - -
24/06:30pm 25.7 - - - - SE 24 28 13 15 1012.8 - -
24/06:20pm 25.7 - - - - SE 26 - 14 - - 1012.5 -
24/06:00pm 25.7 - - - - SE 24 26 13 14 1012.5 - -
24/05:30pm 25.8 - - - - SE 22 26 12 14 1012.3 - -
24/05:20pm 25.7 - - - - SE 20 - 11 - - 1012.0 -
24/05:00pm 25.9 - - - - SE 19 22 10 12 1012.1 - -
24/04:30pm 25.9 - - - - SE 22 26 12 14 1011.7 - -
24/04:20pm 25.8 - - - - SE 20 - 11 - - 1011.4 -
24/04:00pm 25.9 - - - - SE 22 24 12 13 1011.3 - -
24/03:30pm 25.8 - - - - SE 19 24 10 13 1011.1 - -
24/03:20pm 25.9 - - - - SSE 17 - 9 - - 1011.1 -
24/03:00pm 26.0 - - - - SE 15 19 8 10 1011.2 - -
24/02:30pm 25.9 - - - - SE 15 17 8 9 1011.4 - -
24/02:20pm 26.1 - - - - ESE 15 - 8 - - 1011.4 -
24/02:00pm 25.9 - - - - ESE 19 20 10 11 1011.2 - -
24/01:30pm 25.9 - - - - E 20 24 11 13 1011.1 - -
24/01:20pm 25.9 - - - - E 24 - 13 - - 1010.9 -
24/01:00pm 25.8 - - - - E 22 26 12 14 1011.3 - -
24/12:30pm 25.8 - - - - E 26 30 14 16 1011.6 - -
24/12:20pm 25.7 - - - - E 28 - 15 - - 1011.6 -
24/12:00pm 25.6 - - - - E 26 30 14 16 1012.2 - -
24/11:30am 25.5 - - - - ENE 39 46 21 25 1012.2 - -
24/11:20am 25.7 - - - - ENE 43 - 23 - - 1012.2 -
24/11:00am 25.5 - - - - E 43 48 23 26 1012.8 - -
24/10:30am 25.7 - - - - E 44 50 24 27 1013.1 - -
24/10:20am 25.7 - - - - E 44 - 24 - - 1013.5 -
24/10:00am 25.9 - - - - E 43 46 23 25 1014.0 - -
24/09:30am 25.8 - - - - E 39 46 21 25 1014.4 - -
24/09:20am 25.9 - - - - E 39 - 21 - - 1014.3 -
24/09:00am 25.8 - - - - E 35 43 19 23 1014.6 - -
24/08:30am 25.7 - - - - E 41 46 22 25 1014.2 - -
24/08:20am 25.9 - - - - E 39 - 21 - - 1014.4 -
24/08:00am 25.9 - - - - E 37 43 20 23 1014.4 - -
24/07:30am 25.9 - - - - E 35 41 19 22 1014.0 - -
24/07:20am 25.9 - - - - E 35 - 19 - - 1013.9 -
24/07:00am 26.0 - - - - E 30 35 16 19 1013.7 - -
24/06:30am 25.9 - - - - E 35 41 19 22 1013.4 - -
24/06:20am 25.7 - - - - E 37 - 20 - - 1013.1 -
24/06:00am 25.5 - - - - E 37 43 20 23 1012.9 - -
24/05:30am 25.6 - - - - E 35 39 19 21 1012.7 - -
24/05:20am 25.7 - - - - E 32 - 17 - - 1012.2 -
24/05:00am 25.7 - - - - ESE 32 37 17 20 1012.4 - -
24/04:30am 25.4 - - - - ESE 30 35 16 19 1012.5 - -
24/04:20am 25.3 - - - - ESE 32 - 17 - - 1012.3 -
24/04:00am 25.2 - - - - ESE 35 41 19 22 1012.3 - -
24/03:30am 25.3 - - - - ESE 30 37 16 20 1012.6 - -
24/03:20am 25.2 - - - - E 35 - 19 - - 1012.3 -
24/03:00am 24.9 - - - - E 41 48 22 26 1012.2 - -
24/02:30am 24.8 - - - - E 41 46 22 25 1011.9 - -
24/02:20am 25.0 - - - - E 39 - 21 - - 1012.2 -
24/02:00am 25.0 - - - - E 43 48 23 26 1012.3 - -
24/01:30am 24.9 - - - - E 44 50 24 27 1012.6 - -
24/01:20am 24.8 - - - - E 39 - 21 - - 1012.8 -
24/01:00am 24.8 - - - - E 37 44 20 24 1013.2 - -
24/12:30am 24.8 - - - - E 39 46 21 25 1013.6 - -
24/12:20am 24.7 - - - - ESE 39 - 21 - - 1013.8 -
24/12:00am 24.5 - - - - ESE 39 44 21 24 1014.1 - -
 
Date/Time
EST
Temp
°C
App
Temp
°C
Dew
Point
Rel
Hum
%
Delta-T
°C
Wind Press
QNH
hPa
Press
MSL
hPa
Rain
since 9 am
mm
Dir
 
Spd
km/h
Gust
km/h
Spd
kts
Gust
kts
23/11:30pm 24.5 - - - - ESE 43 50 23 27 1014.4 - -
23/11:20pm 24.5 - - - - ESE 46 - 25 - - 1014.3 -
23/11:00pm 24.4 - - - - ESE 46 56 25 30 1014.5 - -
23/10:30pm 23.9 - - - - ESE 50 61 27 33 1014.5 - -
23/10:20pm 24.0 - - - - ESE 46 - 25 - - 1014.5 -
23/10:00pm 24.0 - - - - ESE 52 61 28 33 1014.8 - -
23/09:30pm 23.5 - - - - ESE 48 61 26 33 1014.7 - -
23/09:20pm 23.0 - - - - ESE 54 - 29 - - 1014.7 -
23/09:00pm 22.9 - - - - ESE 43 48 23 26 1014.6 - -
23/08:30pm 22.8 - - - - ESE 46 54 25 29 1015.0 - -
23/08:20pm 22.7 - - - - ESE 48 - 26 - - 1014.9 -
23/08:00pm 23.2 - - - - E 37 44 20 24 1014.9 - -
23/07:30pm 23.3 - - - - E 33 37 18 20 1014.5 - -
23/07:20pm 23.3 - - - - E 37 - 20 - - 1014.3 -
23/07:00pm 23.9 - - - - ESE 39 46 21 25 1014.1 - -
23/06:30pm 23.2 - - - - ESE 33 41 18 22 1013.9 - -
23/06:20pm 23.1 - - - - ESE 39 - 21 - - 1013.7 -
23/06:00pm 22.6 - - - - ESE 39 50 21 27 1013.5 - -
23/05:30pm 23.3 - - - - SE 37 46 20 25 1013.0 - -
23/05:20pm 23.9 - - - - SE 33 - 18 - - 1012.6 -
23/05:00pm 23.8 - - - - SE 32 37 17 20 1012.5 - -
23/04:30pm 23.7 - - - - SE 30 33 16 18 1012.2 - -
23/04:20pm 23.7 - - - - SE 30 - 16 - - 1012.1 -
23/04:00pm 23.8 - - - - SE 32 35 17 19 1012.2 - -
23/03:30pm 23.5 - - - - SE 33 41 18 22 1012.2 - -
23/03:20pm 23.3 - - - - SE 33 - 18 - - 1011.9 -
23/03:00pm 23.2 - - - - SE 35 43 19 23 1012.0 - -
23/02:30pm 24.1 - - - - ESE 37 43 20 23 1011.7 - -
23/02:20pm 24.2 - - - - ESE 41 - 22 - - 1011.4 -
23/02:00pm 24.7 - - - - ESE 43 50 23 27 1011.7 - -
23/01:30pm 25.3 - - - - ESE 43 48 23 26 1012.0 - -
23/01:20pm 25.3 - - - - E 35 - 19 - - 1011.9 -
23/01:00pm 25.6 - - - - ESE 32 39 17 21 1011.9 - -
23/12:30pm 25.5 - - - - SE 32 35 17 19 1012.5 - -
23/12:20pm 25.7 - - - - SE 33 - 18 - - 1012.7 -
23/12:00pm 25.3 - - - - SE 35 41 19 22 1013.2 - -
23/11:30am 25.3 - - - - ESE 35 43 19 23 1013.8 - -
23/11:20am 25.2 - - - - SE 39 - 21 - - 1013.8 -
23/11:00am 25.1 - - - - SE 37 43 20 23 1014.3 - -
23/10:30am 24.9 - - - - SE 35 39 19 21 1014.5 - -
23/10:20am 24.5 - - - - SE 33 - 18 - - 1014.3 -
23/10:00am 24.2 - - - - ESE 37 43 20 23 1014.7 - -
23/09:30am 24.2 - - - - ESE 41 50 22 27 1014.9 - -
23/09:20am 25.0 - - - - ESE 37 - 20 - - 1014.8 -
23/09:00am 24.7 - - - - ESE 35 41 19 22 1014.7 - -
23/08:30am 24.2 - - - - ESE 35 46 19 25 1014.7 - -
23/08:20am 24.6 - - - - SE 32 - 17 - - 1014.7 -
23/08:00am 24.5 - - - - SE 32 37 17 20 1014.7 - -
23/07:30am 24.3 - - - - SE 39 44 21 24 1014.8 - -
23/07:20am 24.7 - - - - SE 37 - 20 - - 1014.5 -
23/07:00am 25.3 - - - - SE 37 44 20 24 1014.4 - -
23/06:30am 25.3 - - - - SE 35 39 19 21 1014.3 - -
23/06:20am 25.5 - - - - SE 37 - 20 - - 1014.2 -
23/06:00am 25.2 - - - - SSE 33 39 18 21 1014.0 - -
23/05:30am 25.4 - - - - SE 33 39 18 21 1013.8 - -
23/05:20am 25.4 - - - - SE 35 - 19 - - 1013.6 -
23/05:00am 25.5 - - - - SE 32 39 17 21 1013.6 - -
23/04:30am 25.3 - - - - SSE 28 33 15 18 1013.8 - -
23/04:20am 25.3 - - - - SSE 32 - 17 - - 1013.7 -
23/04:00am 25.0 - - - - SE 33 37 18 20 1013.8 - -
23/03:30am 25.1 - - - - SE 30 35 16 19 1013.6 - -
23/03:20am 24.9 - - - - SE 32 - 17 - - 1013.5 -
23/03:00am 24.8 - - - - SSE 32 35 17 19 1013.7 - -
23/02:30am 24.7 - - - - SE 28 33 15 18 1014.0 - -
23/02:20am 24.6 - - - - SE 28 - 15 - - 1014.0 -
23/02:00am 24.4 - - - - SE 28 32 15 17 1014.3 - -
23/01:30am 24.2 - - - - SE 35 41 19 22 1014.7 - -
23/01:20am 23.9 - - - - SE 35 - 19 - - 1014.7 -
23/01:00am 23.7 - - - - ESE 26 37 14 20 1014.9 - -
23/12:30am 23.6 - - - - ESE 41 44 22 24 1015.3 - -
23/12:20am 23.6 - - - - ESE 41 - 22 - - 1015.4 -
23/12:00am 24.5 - - - - ESE 35 44 19 24 1015.6 - -
 
Date/Time
EST
Temp
°C
App
Temp
°C
Dew
Point
Rel
Hum
%
Delta-T
°C
Wind Press
QNH
hPa
Press
MSL
hPa
Rain
since 9 am
mm
Dir
 
Spd
km/h
Gust
km/h
Spd
kts
Gust
kts
22/11:30pm 25.2 - - - - ESE 30 35 16 19 1015.7 - -
22/11:20pm 25.0 - - - - ESE 32 - 17 - - 1015.6 -
22/11:00pm 25.1 - - - - ESE 39 44 21 24 1015.8 - -
22/10:30pm 24.9 - - - - SE 33 39 18 21 1015.8 - -
22/10:20pm 25.4 - - - - SE 32 - 17 - - 1015.8 -
22/10:00pm 25.0 - - - - SE 32 37 17 20 1016.1 - -
22/09:30pm 25.4 - - - - SE 35 39 19 21 1016.3 - -
22/09:20pm 25.6 - - - - ESE 33 - 18 - - 1016.3 -
22/09:00pm 25.9 - - - - SE 35 39 19 21 1016.3 - -
22/08:30pm 25.9 - - - - SE 33 39 18 21 1016.4 - -
22/08:20pm 26.0 - - - - SE 35 - 19 - - 1016.3 -
22/08:00pm 25.8 - - - - SE 33 39 18 21 1016.1 - -
22/07:30pm 25.9 - - - - SE 35 41 19 22 1015.8 - -
22/07:20pm 25.8 - - - - SE 35 - 19 - - 1015.5 -
22/07:00pm 25.7 - - - - SE 35 41 19 22 1015.5 - -
22/06:30pm 25.6 - - - - SE 37 41 20 22 1015.3 - -
22/06:20pm 25.8 - - - - SE 35 - 19 - - 1015.1 -
22/06:00pm 25.8 - - - - SE 35 43 19 23 1015.3 - -
22/05:30pm 25.9 - - - - SE 39 44 21 24 1015.0 - -
22/05:20pm 25.9 - - - - SE 37 - 20 - - 1014.7 -
22/05:00pm 25.8 - - - - SE 35 41 19 22 1014.9 - -
22/04:30pm 25.8 - - - - SE 35 43 19 23 1015.1 - -
22/04:20pm 25.8 - - - - SE 37 - 20 - - 1014.9 -
22/04:00pm 25.7 - - - - SE 37 43 20 23 1014.9 - -
22/03:30pm 25.6 - - - - SE 35 43 19 23 1014.9 - -
22/03:20pm 25.7 - - - - SE 39 - 21 - - 1014.7 -

Other Formats:

Comma delimited format used in spreadsheet applications
http://www.bom.gov.au/fwo/IDQ60801/IDQ60801.94371.axf

JavaScript Object Notation format (JSON) in row-major order
http://www.bom.gov.au/fwo/IDQ60801/IDQ60801.94371.json